sensor_id;sensor_type;location;lat;lon;timestamp;pressure;altitude;pressure_sealevel;temperature;humidity
72210;BME280;60113;48.762;12.302;2023-04-07T00:00:22;97343.53;;;-3.65;70.35
72210;BME280;60113;48.762;12.302;2023-04-07T00:02:48;97346.16;;;-3.68;57.80
72210;BME280;60113;48.762;12.302;2023-04-07T00:05:14;97341.06;;;-3.70;59.57
72210;BME280;60113;48.762;12.302;2023-04-07T00:07:39;97342.78;;;-3.72;65.79
72210;BME280;60113;48.762;12.302;2023-04-07T00:10:05;97342.06;;;-3.79;57.68
72210;BME280;60113;48.762;12.302;2023-04-07T00:12:31;97343.78;;;-3.81;58.19
72210;BME280;60113;48.762;12.302;2023-04-07T00:14:56;97343.81;;;-3.82;55.51
72210;BME280;60113;48.762;12.302;2023-04-07T00:17:23;97343.00;;;-3.84;54.10
72210;BME280;60113;48.762;12.302;2023-04-07T00:19:49;97333.59;;;-3.85;64.41
72210;BME280;60113;48.762;12.302;2023-04-07T00:22:14;97339.69;;;-3.91;62.70
72210;BME280;60113;48.762;12.302;2023-04-07T00:24:40;97330.34;;;-3.97;66.78
72210;BME280;60113;48.762;12.302;2023-04-07T00:27:05;97339.81;;;-3.99;71.26
72210;BME280;60113;48.762;12.302;2023-04-07T00:29:34;97339.03;;;-4.04;74.89
72210;BME280;60113;48.762;12.302;2023-04-07T00:31:59;97330.59;;;-4.11;73.59
72210;BME280;60113;48.762;12.302;2023-04-07T00:34:25;97335.00;;;-4.19;68.07
72210;BME280;60113;48.762;12.302;2023-04-07T00:36:50;97323.13;;;-4.25;60.85
72210;BME280;60113;48.762;12.302;2023-04-07T00:39:16;97326.56;;;-4.29;52.42
72210;BME280;60113;48.762;12.302;2023-04-07T00:41:42;97329.97;;;-4.27;68.59
72210;BME280;60113;48.762;12.302;2023-04-07T00:44:07;97317.16;;;-4.27;69.39
72210;BME280;60113;48.762;12.302;2023-04-07T00:46:33;97322.31;;;-4.29;72.56
72210;BME280;60113;48.762;12.302;2023-04-07T00:48:59;97324.06;;;-4.32;71.20
72210;BME280;60113;48.762;12.302;2023-04-07T00:51:24;97326.66;;;-4.34;71.50
72210;BME280;60113;48.762;12.302;2023-04-07T00:53:51;97323.31;;;-4.39;68.39
72210;BME280;60113;48.762;12.302;2023-04-07T00:56:16;97320.84;;;-4.45;68.68
72210;BME280;60113;48.762;12.302;2023-04-07T00:58:42;97318.31;;;-4.48;66.14
72210;BME280;60113;48.762;12.302;2023-04-07T01:01:08;97316.66;;;-4.53;57.47
72210;BME280;60113;48.762;12.302;2023-04-07T01:03:39;97314.97;;;-4.55;53.79
72210;BME280;60113;48.762;12.302;2023-04-07T01:06:08;97312.41;;;-4.55;63.07
72210;BME280;60113;48.762;12.302;2023-04-07T01:08:47;97307.38;;;-4.61;55.27
72210;BME280;60113;48.762;12.302;2023-04-07T01:13:50;97311.69;;;-4.65;68.59
72210;BME280;60113;48.762;12.302;2023-04-07T01:16:22;97302.34;;;-4.69;67.46
72210;BME280;60113;48.762;12.302;2023-04-07T01:18:50;97304.13;;;-4.73;69.56
72210;BME280;60113;48.762;12.302;2023-04-07T01:21:16;97303.28;;;-4.73;70.13
72210;BME280;60113;48.762;12.302;2023-04-07T01:26:30;97302.44;;;-4.75;75.44
72210;BME280;60113;48.762;12.302;2023-04-07T01:31:27;97307.53;;;-4.72;68.31
72210;BME280;60113;48.762;12.302;2023-04-07T01:33:53;97296.41;;;-4.71;68.31
72210;BME280;60113;48.762;12.302;2023-04-07T01:36:19;97293.84;;;-4.71;67.50
72210;BME280;60113;48.762;12.302;2023-04-07T01:38:45;97295.53;;;-4.70;71.88
72210;BME280;60113;48.762;12.302;2023-04-07T01:41:13;97287.00;;;-4.71;73.30
72210;BME280;60113;48.762;12.302;2023-04-07T01:43:39;97294.69;;;-4.72;69.27
72210;BME280;60113;48.762;12.302;2023-04-07T01:46:05;97290.47;;;-4.75;68.34
72210;BME280;60113;48.762;12.302;2023-04-07T01:48:30;97293.00;;;-4.73;72.01
72210;BME280;60113;48.762;12.302;2023-04-07T01:50:56;97282.78;;;-4.75;68.24
72210;BME280;60113;48.762;12.302;2023-04-07T01:53:22;97281.94;;;-4.75;72.49
72210;BME280;60113;48.762;12.302;2023-04-07T01:55:47;97287.06;;;-4.77;70.96
72210;BME280;60113;48.762;12.302;2023-04-07T01:58:13;97288.81;;;-4.78;74.57
72210;BME280;60113;48.762;12.302;2023-04-07T02:00:38;97294.78;;;-4.79;74.65
72210;BME280;60113;48.762;12.302;2023-04-07T02:03:22;97287.09;;;-4.79;73.76
72210;BME280;60113;48.762;12.302;2023-04-07T02:05:48;97287.94;;;-4.77;75.96
72210;BME280;60113;48.762;12.302;2023-04-07T02:08:17;97275.09;;;-4.75;72.81
72210;BME280;60113;48.762;12.302;2023-04-07T02:10:45;97277.69;;;-4.77;65.92
72210;BME280;60113;48.762;12.302;2023-04-07T02:13:12;97279.31;;;-4.72;67.23
72210;BME280;60113;48.762;12.302;2023-04-07T02:15:39;97278.50;;;-4.73;54.47
72210;BME280;60113;48.762;12.302;2023-04-07T02:18:05;97282.66;;;-4.66;55.35
72210;BME280;60113;48.762;12.302;2023-04-07T02:20:32;97274.78;;;-4.53;72.62
72210;BME280;60113;48.762;12.302;2023-04-07T02:22:59;97267.88;;;-4.51;71.41
72210;BME280;60113;48.762;12.302;2023-04-07T02:25:25;97276.38;;;-4.46;70.17
72210;BME280;60113;48.762;12.302;2023-04-07T02:27:51;97268.56;;;-4.38;73.31
72210;BME280;60113;48.762;12.302;2023-04-07T02:30:17;97266.81;;;-4.34;73.31
72210;BME280;60113;48.762;12.302;2023-04-07T02:32:42;97271.06;;;-4.33;70.82
72210;BME280;60113;48.762;12.302;2023-04-07T02:35:08;97260.78;;;-4.33;72.21
72210;BME280;60113;48.762;12.302;2023-04-07T02:37:33;97259.09;;;-4.34;70.54
72210;BME280;60113;48.762;12.302;2023-04-07T02:39:58;97255.66;;;-4.33;72.80
72210;BME280;60113;48.762;12.302;2023-04-07T02:42:23;97255.63;;;-4.32;76.73
72210;BME280;60113;48.762;12.302;2023-04-07T02:44:49;97255.72;;;-4.36;67.19
72210;BME280;60113;48.762;12.302;2023-04-07T02:47:14;97254.03;;;-4.37;63.49
72210;BME280;60113;48.762;12.302;2023-04-07T02:49:40;97252.31;;;-4.39;66.41
72210;BME280;60113;48.762;12.302;2023-04-07T02:52:05;97256.63;;;-4.41;58.41
72210;BME280;60113;48.762;12.302;2023-04-07T02:54:30;97249.78;;;-4.42;56.46
72210;BME280;60113;48.762;12.302;2023-04-07T02:56:56;97253.13;;;-4.36;65.74
72210;BME280;60113;48.762;12.302;2023-04-07T02:59:21;97257.44;;;-4.39;57.60
72210;BME280;60113;48.762;12.302;2023-04-07T03:01:46;97247.06;;;-4.31;62.52
72210;BME280;60113;48.762;12.302;2023-04-07T03:04:12;97246.94;;;-4.23;65.29
72210;BME280;60113;48.762;12.302;2023-04-07T03:06:37;97252.84;;;-4.18;69.76
72210;BME280;60113;48.762;12.302;2023-04-07T03:09:02;97251.97;;;-4.17;62.94
72210;BME280;60113;48.762;12.302;2023-04-07T03:11:28;97249.28;;;-4.10;67.76
72210;BME280;60113;48.762;12.302;2023-04-07T03:13:53;97247.56;;;-4.10;56.88
72210;BME280;60113;48.762;12.302;2023-04-07T03:16:18;97244.03;;;-4.04;63.99
72210;BME280;60113;48.762;12.302;2023-04-07T03:18:44;97245.66;;;-3.98;66.25
72210;BME280;60113;48.762;12.302;2023-04-07T03:21:09;97243.00;;;-3.94;67.22
72210;BME280;60113;48.762;12.302;2023-04-07T03:23:34;97248.97;;;-3.92;67.62
72210;BME280;60113;48.762;12.302;2023-04-07T03:26:00;97249.81;;;-3.90;68.78
72210;BME280;60113;48.762;12.302;2023-04-07T03:28:25;97248.00;;;-3.86;64.11
72210;BME280;60113;48.762;12.302;2023-04-07T03:30:50;97246.16;;;-3.78;65.96
72210;BME280;60113;48.762;12.302;2023-04-07T03:33:16;97254.63;;;-3.72;66.54
72210;BME280;60113;48.762;12.302;2023-04-07T03:35:41;97258.00;;;-3.70;66.92
72210;BME280;60113;48.762;12.302;2023-04-07T03:38:06;97243.44;;;-3.70;65.69
72210;BME280;60113;48.762;12.302;2023-04-07T03:40:32;97244.28;;;-3.68;67.32
72210;BME280;60113;48.762;12.302;2023-04-07T03:42:57;97250.25;;;-3.67;71.55
72210;BME280;60113;48.762;12.302;2023-04-07T03:45:23;97246.06;;;-3.73;59.67
72210;BME280;60113;48.762;12.302;2023-04-07T03:47:48;97241.84;;;-3.75;67.09
72210;BME280;60113;48.762;12.302;2023-04-07T03:50:13;97242.75;;;-3.80;64.60
72210;BME280;60113;48.762;12.302;2023-04-07T03:52:39;97238.56;;;-3.84;71.79
72210;BME280;60113;48.762;12.302;2023-04-07T03:55:04;97242.09;;;-3.90;67.12
72210;BME280;60113;48.762;12.302;2023-04-07T03:57:30;97244.69;;;-3.91;71.26
72210;BME280;60113;48.762;12.302;2023-04-07T03:59:55;97241.38;;;-3.98;71.79
72210;BME280;60113;48.762;12.302;2023-04-07T04:02:20;97248.22;;;-3.98;68.77
72210;BME280;60113;48.762;12.302;2023-04-07T04:04:46;97247.44;;;-4.02;64.27
72210;BME280;60113;48.762;12.302;2023-04-07T04:07:11;97238.97;;;-4.07;66.75
72210;BME280;60113;48.762;12.302;2023-04-07T04:09:36;97242.53;;;-4.16;68.10
72210;BME280;60113;48.762;12.302;2023-04-07T04:12:02;97243.56;;;-4.25;64.94
72210;BME280;60113;48.762;12.302;2023-04-07T04:14:27;97242.81;;;-4.32;56.32
72210;BME280;60113;48.762;12.302;2023-04-07T04:16:53;97236.06;;;-4.37;64.37
72210;BME280;60113;48.762;12.302;2023-04-07T04:19:18;97236.22;;;-4.47;58.67
72210;BME280;60113;48.762;12.302;2023-04-07T04:21:43;97231.19;;;-4.53;60.49
72210;BME280;60113;48.762;12.302;2023-04-07T04:24:10;97228.69;;;-4.59;68.42
72210;BME280;60113;48.762;12.302;2023-04-07T04:26:35;97232.19;;;-4.65;69.89
72210;BME280;60113;48.762;12.302;2023-04-07T04:29:00;97226.34;;;-4.73;66.52
72210;BME280;60113;48.762;12.302;2023-04-07T04:31:27;97228.06;;;-4.75;65.90
72210;BME280;60113;48.762;12.302;2023-04-07T04:33:52;97230.63;;;-4.74;76.97
72210;BME280;60113;48.762;12.302;2023-04-07T04:36:18;97218.69;;;-4.77;80.25
72210;BME280;60113;48.762;12.302;2023-04-07T04:38:43;97216.22;;;-4.81;77.53
72210;BME280;60113;48.762;12.302;2023-04-07T04:41:08;97219.63;;;-4.81;81.37
72210;BME280;60113;48.762;12.302;2023-04-07T04:43:34;97218.00;;;-4.88;73.14
72210;BME280;60113;48.762;12.302;2023-04-07T04:45:59;97220.59;;;-4.90;64.44
72210;BME280;60113;48.762;12.302;2023-04-07T04:48:24;97225.72;;;-4.90;61.70
72210;BME280;60113;48.762;12.302;2023-04-07T04:50:50;97217.97;;;-4.85;71.17
72210;BME280;60113;48.762;12.302;2023-04-07T04:53:15;97215.38;;;-4.83;67.87
72210;BME280;60113;48.762;12.302;2023-04-07T04:55:40;97221.28;;;-4.78;76.00
72210;BME280;60113;48.762;12.302;2023-04-07T04:58:10;97225.53;;;-4.77;78.20
72210;BME280;60113;48.762;12.302;2023-04-07T05:00:36;97225.56;;;-4.80;70.42
72210;BME280;60113;48.762;12.302;2023-04-07T05:03:01;97220.34;;;-4.72;69.62
72210;BME280;60113;48.762;12.302;2023-04-07T05:05:27;97223.69;;;-4.67;72.56
72210;BME280;60113;48.762;12.302;2023-04-07T05:07:52;97227.03;;;-4.64;74.05
72210;BME280;60113;48.762;12.302;2023-04-07T05:10:18;97228.75;;;-4.62;69.32
72210;BME280;60113;48.762;12.302;2023-04-07T05:12:43;97226.13;;;-4.58;72.28
72210;BME280;60113;48.762;12.302;2023-04-07T05:15:08;97228.56;;;-4.50;72.89
72210;BME280;60113;48.762;12.302;2023-04-07T05:17:34;97220.78;;;-4.45;72.46
72210;BME280;60113;48.762;12.302;2023-04-07T05:19:59;97222.41;;;-4.40;73.00
72210;BME280;60113;48.762;12.302;2023-04-07T05:22:24;97223.19;;;-4.34;73.86
72210;BME280;60113;48.762;12.302;2023-04-07T05:24:50;97223.94;;;-4.29;75.74
72210;BME280;60113;48.762;12.302;2023-04-07T05:27:15;97219.63;;;-4.27;72.58
72210;BME280;60113;48.762;12.302;2023-04-07T05:29:41;97216.97;;;-4.21;68.37
72210;BME280;60113;48.762;12.302;2023-04-07T05:32:06;97221.09;;;-4.14;72.11
72210;BME280;60113;48.762;12.302;2023-04-07T05:34:31;97215.91;;;-4.09;72.32
72210;BME280;60113;48.762;12.302;2023-04-07T05:36:57;97219.19;;;-4.00;64.12
72210;BME280;60113;48.762;12.302;2023-04-07T05:39:22;97220.66;;;-3.89;62.93
72210;BME280;60113;48.762;12.302;2023-04-07T05:41:47;97226.44;;;-3.75;69.63
72210;BME280;60113;48.762;12.302;2023-04-07T05:44:13;97221.97;;;-3.67;63.11
72210;BME280;60113;48.762;12.302;2023-04-07T05:46:38;97217.50;;;-3.56;69.04
72210;BME280;60113;48.762;12.302;2023-04-07T05:49:03;97220.75;;;-3.47;67.55
72210;BME280;60113;48.762;12.302;2023-04-07T05:51:29;97227.31;;;-3.32;70.46
72210;BME280;60113;48.762;12.302;2023-04-07T05:53:55;97221.03;;;-3.19;68.72
72210;BME280;60113;48.762;12.302;2023-04-07T05:56:20;97221.28;;;-2.90;63.10
72210;BME280;60113;48.762;12.302;2023-04-07T05:58:46;97223.63;;;-2.43;67.87
72210;BME280;60113;48.762;12.302;2023-04-07T06:01:11;97226.53;;;-1.87;69.00
72210;BME280;60113;48.762;12.302;2023-04-07T06:03:37;97223.41;;;-1.33;71.42
72210;BME280;60113;48.762;12.302;2023-04-07T06:06:03;97225.34;;;-0.83;72.99
72210;BME280;60113;48.762;12.302;2023-04-07T06:08:28;97223.13;;;-0.38;67.22
72210;BME280;60113;48.762;12.302;2023-04-07T06:10:53;97226.72;;;0.10;70.38
72210;BME280;60113;48.762;12.302;2023-04-07T06:13:20;97214.22;;;0.47;70.42
72210;BME280;60113;48.762;12.302;2023-04-07T06:15:45;97214.56;;;0.86;67.89
72210;BME280;60113;48.762;12.302;2023-04-07T06:18:11;97208.78;;;1.26;65.41
72210;BME280;60113;48.762;12.302;2023-04-07T06:20:36;97209.69;;;1.68;66.22
72210;BME280;60113;48.762;12.302;2023-04-07T06:23:01;97200.34;;;2.07;66.10
72210;BME280;60113;48.762;12.302;2023-04-07T06:25:27;97207.47;;;2.43;65.71
72210;BME280;60113;48.762;12.302;2023-04-07T06:27:52;97198.84;;;2.81;64.72
72210;BME280;60113;48.762;12.302;2023-04-07T06:30:18;97204.94;;;3.19;64.00
72210;BME280;60113;48.762;12.302;2023-04-07T06:32:43;97205.53;;;3.43;64.24
72210;BME280;60113;48.762;12.302;2023-04-07T06:35:08;97207.72;;;3.70;64.88
72210;BME280;60113;48.762;12.302;2023-04-07T06:37:34;97209.63;;;4.02;64.04
72210;BME280;60113;48.762;12.302;2023-04-07T06:39:59;97212.44;;;4.33;63.98
72210;BME280;60113;48.762;12.302;2023-04-07T06:42:24;97205.06;;;4.59;63.09
72210;BME280;60113;48.762;12.302;2023-04-07T06:44:50;97200.72;;;4.75;63.29
72210;BME280;60113;48.762;12.302;2023-04-07T06:47:15;97190.81;;;4.98;61.87
72210;BME280;60113;48.762;12.302;2023-04-07T06:49:40;97192.09;;;5.23;62.18
72210;BME280;60113;48.762;12.302;2023-04-07T06:52:06;97193.88;;;5.54;61.30
72210;BME280;60113;48.762;12.302;2023-04-07T06:54:31;97195.50;;;5.87;61.87
72210;BME280;60113;48.762;12.302;2023-04-07T06:56:56;97200.47;;;6.22;61.97
72210;BME280;60113;48.762;12.302;2023-04-07T06:59:22;97202.38;;;6.49;60.27
72210;BME280;60113;48.762;12.302;2023-04-07T07:01:47;97197.41;;;6.74;60.35
72210;BME280;60113;48.762;12.302;2023-04-07T07:04:13;97190.69;;;6.99;59.78
72210;BME280;60113;48.762;12.302;2023-04-07T07:06:38;97191.16;;;7.33;60.96
72210;BME280;60113;48.762;12.302;2023-04-07T07:09:04;97196.38;;;7.61;57.87
72210;BME280;60113;48.762;12.302;2023-04-07T07:11:29;97193.84;;;7.87;60.71
72210;BME280;60113;48.762;12.302;2023-04-07T07:13:54;97198.69;;;8.19;61.58
72210;BME280;60113;48.762;12.302;2023-04-07T07:16:20;97197.47;;;8.51;61.37
72210;BME280;60113;48.762;12.302;2023-04-07T07:18:48;97198.19;;;8.79;59.53
72210;BME280;60113;48.762;12.302;2023-04-07T07:21:13;97193.03;;;8.91;51.67
72210;BME280;60113;48.762;12.302;2023-04-07T07:23:38;97199.06;;;9.04;55.77
72210;BME280;60113;48.762;12.302;2023-04-07T07:26:04;97185.41;;;9.25;55.06
72210;BME280;60113;48.762;12.302;2023-04-07T07:28:29;97190.59;;;9.38;52.56
72210;BME280;60113;48.762;12.302;2023-04-07T07:30:55;97188.13;;;9.48;55.37
72210;BME280;60113;48.762;12.302;2023-04-07T07:33:20;97186.81;;;9.42;53.47
72210;BME280;60113;48.762;12.302;2023-04-07T07:35:47;97196.41;;;9.55;54.78
72210;BME280;60113;48.762;12.302;2023-04-07T07:38:12;97185.16;;;9.77;53.74
72210;BME280;60113;48.762;12.302;2023-04-07T07:40:38;97187.16;;;9.98;55.63
72210;BME280;60113;48.762;12.302;2023-04-07T07:43:03;97185.28;;;9.75;52.87
72210;BME280;60113;48.762;12.302;2023-04-07T07:45:28;97187.41;;;9.70;55.16
72210;BME280;60113;48.762;12.302;2023-04-07T07:47:56;97181.22;;;9.47;54.56
72210;BME280;60113;48.762;12.302;2023-04-07T07:50:22;97185.63;;;9.46;55.55
72210;BME280;60113;48.762;12.302;2023-04-07T07:52:48;97184.63;;;9.36;56.67
72210;BME280;60113;48.762;12.302;2023-04-07T07:55:13;97188.13;;;9.48;56.79
72210;BME280;60113;48.762;12.302;2023-04-07T07:57:39;97176.25;;;9.55;57.11
72210;BME280;60113;48.762;12.302;2023-04-07T08:00:05;97178.06;;;9.66;57.84
72210;BME280;60113;48.762;12.302;2023-04-07T08:02:30;97177.50;;;9.62;55.12
72210;BME280;60113;48.762;12.302;2023-04-07T08:04:58;97185.44;;;9.85;55.64
72210;BME280;60113;48.762;12.302;2023-04-07T08:07:23;97180.38;;;10.07;54.36
72210;BME280;60113;48.762;12.302;2023-04-07T08:09:49;97180.00;;;10.00;52.30
72210;BME280;60113;48.762;12.302;2023-04-07T08:12:14;97178.25;;;10.12;51.95
72210;BME280;60113;48.762;12.302;2023-04-07T08:14:40;97185.78;;;10.17;54.21
72210;BME280;60113;48.762;12.302;2023-04-07T08:17:05;97181.56;;;9.67;52.07
72210;BME280;60113;48.762;12.302;2023-04-07T08:19:30;97185.03;;;9.67;53.82
72210;BME280;60113;48.762;12.302;2023-04-07T08:21:56;97181.28;;;9.94;56.47
72210;BME280;60113;48.762;12.302;2023-04-07T08:24:21;97176.31;;;10.14;52.20
72210;BME280;60113;48.762;12.302;2023-04-07T08:26:47;97179.75;;;10.50;52.30
72210;BME280;60113;48.762;12.302;2023-04-07T08:29:12;97168.66;;;10.81;50.33
72210;BME280;60113;48.762;12.302;2023-04-07T08:31:37;97171.03;;;10.96;49.13
72210;BME280;60113;48.762;12.302;2023-04-07T08:34:03;97174.22;;;11.11;48.75
72210;BME280;60113;48.762;12.302;2023-04-07T08:36:28;97169.47;;;11.05;49.86
72210;BME280;60113;48.762;12.302;2023-04-07T08:38:54;97168.53;;;10.60;50.80
72210;BME280;60113;48.762;12.302;2023-04-07T08:41:52;97173.41;;;10.53;51.21
72210;BME280;60113;48.762;12.302;2023-04-07T08:44:12;97172.19;;;10.34;49.59
72210;BME280;60113;48.762;12.302;2023-04-07T08:46:39;97169.00;;;10.77;50.33
72210;BME280;60113;48.762;12.302;2023-04-07T08:49:08;97160.84;;;11.25;55.74
72210;BME280;60113;48.762;12.302;2023-04-07T08:51:34;97166.47;;;10.98;49.23
72210;BME280;60113;48.762;12.302;2023-04-07T08:54:07;97159.44;;;10.87;49.07
72210;BME280;60113;48.762;12.302;2023-04-07T08:56:33;97166.81;;;10.36;48.73
72210;BME280;60113;48.762;12.302;2023-04-07T08:59:00;97163.41;;;10.11;49.89
72210;BME280;60113;48.762;12.302;2023-04-07T09:01:26;97170.53;;;9.61;51.03
72210;BME280;60113;48.762;12.302;2023-04-07T09:03:52;97167.47;;;9.92;49.32
72210;BME280;60113;48.762;12.302;2023-04-07T09:06:18;97162.13;;;10.17;49.63
72210;BME280;60113;48.762;12.302;2023-04-07T09:08:43;97164.50;;;10.56;48.94
72210;BME280;60113;48.762;12.302;2023-04-07T09:11:08;97162.53;;;11.04;50.36
72210;BME280;60113;48.762;12.302;2023-04-07T09:13:34;97152.22;;;11.12;48.68
72210;BME280;60113;48.762;12.302;2023-04-07T09:16:00;97161.13;;;10.88;48.97
72210;BME280;60113;48.762;12.302;2023-04-07T09:18:26;97161.88;;;11.23;47.52
72210;BME280;60113;48.762;12.302;2023-04-07T09:20:59;97151.75;;;11.18;46.10
72210;BME280;60113;48.762;12.302;2023-04-07T09:25:54;97149.81;;;11.32;46.48
72210;BME280;60113;48.762;12.302;2023-04-07T09:28:20;97152.00;;;11.81;49.23
72210;BME280;60113;48.762;12.302;2023-04-07T09:30:52;97147.41;;;11.61;46.15
72210;BME280;60113;48.762;12.302;2023-04-07T09:33:26;97157.28;;;11.04;46.89
72210;BME280;60113;48.762;12.302;2023-04-07T09:35:52;97148.19;;;10.96;47.07
72210;BME280;60113;48.762;12.302;2023-04-07T09:38:17;97145.31;;;10.99;46.64
72210;BME280;60113;48.762;12.302;2023-04-07T09:40:43;97141.53;;;10.58;47.88
72210;BME280;60113;48.762;12.302;2023-04-07T09:43:13;97151.53;;;10.30;47.60
72210;BME280;60113;48.762;12.302;2023-04-07T09:45:39;97143.56;;;10.77;47.25
72210;BME280;60113;48.762;12.302;2023-04-07T09:48:07;97132.53;;;11.06;48.26
72210;BME280;60113;48.762;12.302;2023-04-07T09:50:41;97133.91;;;11.33;45.48
72210;BME280;60113;48.762;12.302;2023-04-07T09:53:10;97128.34;;;11.69;45.96
72210;BME280;60113;48.762;12.302;2023-04-07T09:55:35;97129.03;;;11.29;46.87
72210;BME280;60113;48.762;12.302;2023-04-07T09:58:02;97132.22;;;11.32;46.04
72210;BME280;60113;48.762;12.302;2023-04-07T10:00:28;97125.00;;;11.13;45.42
72210;BME280;60113;48.762;12.302;2023-04-07T10:02:53;97126.47;;;11.38;46.86
72210;BME280;60113;48.762;12.302;2023-04-07T10:05:19;97126.94;;;11.65;45.13
72210;BME280;60113;48.762;12.302;2023-04-07T10:07:45;97124.28;;;11.44;46.80
72210;BME280;60113;48.762;12.302;2023-04-07T10:10:12;97127.63;;;11.02;46.15
72210;BME280;60113;48.762;12.302;2023-04-07T10:12:37;97132.69;;;10.70;47.24
72210;BME280;60113;48.762;12.302;2023-04-07T10:15:03;97130.78;;;10.61;48.10
72210;BME280;60113;48.762;12.302;2023-04-07T10:17:30;97129.72;;;10.52;49.00
72210;BME280;60113;48.762;12.302;2023-04-07T10:19:57;97133.22;;;10.05;49.66
72210;BME280;60113;48.762;12.302;2023-04-07T10:22:23;97130.94;;;10.00;50.00
72210;BME280;60113;48.762;12.302;2023-04-07T10:24:53;97128.28;;;9.78;51.25
72210;BME280;60113;48.762;12.302;2023-04-07T10:27:23;97133.22;;;10.05;49.51
72210;BME280;60113;48.762;12.302;2023-04-07T10:29:51;97123.63;;;10.63;48.79
72210;BME280;60113;48.762;12.302;2023-04-07T10:32:17;97122.13;;;11.05;48.39
72210;BME280;60113;48.762;12.302;2023-04-07T10:37:14;97125.63;;;10.36;49.11
72210;BME280;60113;48.762;12.302;2023-04-07T10:39:42;97122.78;;;10.40;49.30
72210;BME280;60113;48.762;12.302;2023-04-07T10:42:43;97117.38;;;10.07;49.50
72210;BME280;60113;48.762;12.302;2023-04-07T10:44:53;97113.69;;;10.21;50.37
72210;BME280;60113;48.762;12.302;2023-04-07T10:47:18;97114.00;;;10.05;49.84
72210;BME280;60113;48.762;12.302;2023-04-07T10:52:48;97110.59;;;10.50;49.68
72210;BME280;60113;48.762;12.302;2023-04-07T11:00:40;97109.88;;;10.71;47.93
72210;BME280;60113;48.762;12.302;2023-04-07T11:03:09;97103.91;;;10.80;47.06
72210;BME280;60113;48.762;12.302;2023-04-07T11:05:37;97112.13;;;10.98;47.22
72210;BME280;60113;48.762;12.302;2023-04-07T11:08:03;97109.47;;;11.10;46.57
72210;BME280;60113;48.762;12.302;2023-04-07T11:10:30;97107.41;;;11.13;47.54
72210;BME280;60113;48.762;12.302;2023-04-07T11:13:00;97112.16;;;11.20;45.83
72210;BME280;60113;48.762;12.302;2023-04-07T11:15:26;97110.34;;;10.87;46.60
72210;BME280;60113;48.762;12.302;2023-04-07T11:23:13;97093.00;;;10.96;45.98
72210;BME280;60113;48.762;12.302;2023-04-07T11:25:40;97096.38;;;10.75;46.19
72210;BME280;60113;48.762;12.302;2023-04-07T11:28:08;97094.03;;;10.49;47.68
72210;BME280;60113;48.762;12.302;2023-04-07T11:30:33;97092.78;;;10.77;47.22
72210;BME280;60113;48.762;12.302;2023-04-07T11:33:00;97085.94;;;10.97;46.27
72210;BME280;60113;48.762;12.302;2023-04-07T11:35:25;97083.84;;;11.23;46.12
72210;BME280;60113;48.762;12.302;2023-04-07T11:38:00;97090.03;;;11.55;45.63
72210;BME280;60113;48.762;12.302;2023-04-07T11:40:34;97086.06;;;11.82;45.30
72210;BME280;60113;48.762;12.302;2023-04-07T11:43:01;97090.22;;;11.42;45.28
72210;BME280;60113;48.762;12.302;2023-04-07T11:45:26;97088.59;;;11.30;45.02
72210;BME280;60113;48.762;12.302;2023-04-07T11:47:52;97089.13;;;11.12;44.88
72210;BME280;60113;48.762;12.302;2023-04-07T11:50:39;97090.47;;;10.95;45.69
72210;BME280;60113;48.762;12.302;2023-04-07T11:53:04;97089.97;;;11.12;44.56
72210;BME280;60113;48.762;12.302;2023-04-07T11:55:30;97089.47;;;11.52;43.84
72210;BME280;60113;48.762;12.302;2023-04-07T11:58:03;97087.59;;;11.85;43.47
72210;BME280;60113;48.762;12.302;2023-04-07T12:00:29;97086.66;;;12.38;42.38
72210;BME280;60113;48.762;12.302;2023-04-07T12:02:55;97079.06;;;12.45;41.72
72210;BME280;60113;48.762;12.302;2023-04-07T12:05:20;97082.84;;;12.53;42.85
72210;BME280;60113;48.762;12.302;2023-04-07T12:07:52;97081.28;;;12.50;42.38
72210;BME280;60113;48.762;12.302;2023-04-07T12:10:18;97079.44;;;12.82;44.59
72210;BME280;60113;48.762;12.302;2023-04-07T12:12:44;97075.19;;;13.10;44.87
72210;BME280;60113;48.762;12.302;2023-04-07T12:15:10;97073.13;;;13.34;43.60
72210;BME280;60113;48.762;12.302;2023-04-07T12:17:35;97070.34;;;13.45;40.47
72210;BME280;60113;48.762;12.302;2023-04-07T12:20:01;97071.75;;;13.59;42.64
72210;BME280;60113;48.762;12.302;2023-04-07T12:22:26;97065.50;;;13.70;39.41
72210;BME280;60113;48.762;12.302;2023-04-07T12:24:52;97070.59;;;13.82;39.31
72210;BME280;60113;48.762;12.302;2023-04-07T12:27:21;97075.72;;;13.93;39.46
72210;BME280;60113;48.762;12.302;2023-04-07T12:29:51;97074.06;;;13.92;38.27
72210;BME280;60113;48.762;12.302;2023-04-07T12:32:16;97073.59;;;14.07;39.45
72210;BME280;60113;48.762;12.302;2023-04-07T12:34:42;97074.97;;;14.11;37.73
72210;BME280;60113;48.762;12.302;2023-04-07T12:37:08;97070.50;;;14.21;38.44
72210;BME280;60113;48.762;12.302;2023-04-07T12:39:34;97062.34;;;14.43;38.46
72210;BME280;60113;48.762;12.302;2023-04-07T12:41:59;97063.63;;;14.67;41.99
72210;BME280;60113;48.762;12.302;2023-04-07T12:44:25;97061.81;;;14.67;38.95
72210;BME280;60113;48.762;12.302;2023-04-07T12:46:50;97066.44;;;14.65;39.22
72210;BME280;60113;48.762;12.302;2023-04-07T12:49:16;97057.81;;;14.63;40.11
72210;BME280;60113;48.762;12.302;2023-04-07T12:51:41;97065.00;;;14.71;39.83
72210;BME280;60113;48.762;12.302;2023-04-07T12:54:06;97050.19;;;14.78;41.35
72210;BME280;60113;48.762;12.302;2023-04-07T12:56:32;97057.44;;;14.76;38.35
72210;BME280;60113;48.762;12.302;2023-04-07T12:58:57;97062.06;;;14.74;37.19
72210;BME280;60113;48.762;12.302;2023-04-07T13:01:23;97055.22;;;14.71;39.21
72210;BME280;60113;48.762;12.302;2023-04-07T13:03:49;97056.88;;;14.82;38.31
72210;BME280;60113;48.762;12.302;2023-04-07T13:06:14;97060.38;;;14.73;39.49
72210;BME280;60113;48.762;12.302;2023-04-07T13:08:43;97066.28;;;14.67;37.05
72210;BME280;60113;48.762;12.302;2023-04-07T13:11:08;97056.75;;;14.56;38.14
72210;BME280;60113;48.762;12.302;2023-04-07T13:13:34;97055.69;;;14.00;37.35